Map

Track Data

SID SEASON NUMBER BASIN SUBBASIN NAME ISO_TIME NATURE LAT LON WMO_WIND WMO_PRES WMO_AGENCY TRACK_TYPE DIST2LAND LANDFALL IFLAG USA_AGENCY USA_ATCF_ID USA_LAT USA_LON USA_RECORD USA_STATUS USA_WIND USA_PRES USA_SSHS USA_R34_NE USA_R34_SE USA_R34_SW USA_R34_NW USA_R50_NE USA_R50_SE USA_R50_SW USA_R50_NW USA_R64_NE USA_R64_SE USA_R64_SW USA_R64_NW USA_POCI USA_ROCI USA_RMW USA_EYE TOKYO_LAT TOKYO_LON TOKYO_GRADE TOKYO_WIND TOKYO_PRES TOKYO_R50_DIR TOKYO_R50_LONG TOKYO_R50_SHORT TOKYO_R30_DIR TOKYO_R30_LONG TOKYO_R30_SHORT TOKYO_LAND CMA_LAT CMA_LON CMA_CAT CMA_WIND CMA_PRES HKO_LAT HKO_LON HKO_CAT HKO_WIND HKO_PRES NEWDELHI_LAT NEWDELHI_LON NEWDELHI_GRADE NEWDELHI_WIND NEWDELHI_PRES NEWDELHI_CI NEWDELHI_DP NEWDELHI_POCI REUNION_LAT REUNION_LON REUNION_TYPE REUNION_WIND REUNION_PRES REUNION_TNUM REUNION_CI REUNION_RMW REUNION_R34_NE REUNION_R34_SE REUNION_R34_SW REUNION_R34_NW REUNION_R50_NE REUNION_R50_SE REUNION_R50_SW REUNION_R50_NW REUNION_R64_NE REUNION_R64_SE REUNION_R64_SW REUNION_R64_NW BOM_LAT BOM_LON BOM_TYPE BOM_WIND BOM_PRES BOM_TNUM BOM_CI BOM_RMW BOM_R34_NE BOM_R34_SE BOM_R34_SW BOM_R34_NW BOM_R50_NE BOM_R50_SE BOM_R50_SW BOM_R50_NW BOM_R64_NE BOM_R64_SE BOM_R64_SW BOM_R64_NW BOM_ROCI BOM_POCI BOM_EYE BOM_POS_METHOD BOM_PRES_METHOD NADI_LAT NADI_LON NADI_CAT NADI_WIND NADI_PRES WELLINGTON_LAT WELLINGTON_LON WELLINGTON_WIND WELLINGTON_PRES DS824_LAT DS824_LON DS824_STAGE DS824_WIND DS824_PRES TD9636_LAT TD9636_LON TD9636_STAGE TD9636_WIND TD9636_PRES TD9635_LAT TD9635_LON TD9635_WIND TD9635_PRES TD9635_ROCI NEUMANN_LAT NEUMANN_LON NEUMANN_CLASS NEUMANN_WIND NEUMANN_PRES MLC_LAT MLC_LON MLC_CLASS MLC_WIND MLC_PRES USA_GUST BOM_GUST BOM_GUST_PER REUNION_GUST REUNION_GUST_PER USA_SEAHGT USA_SEARAD_NE USA_SEARAD_SE USA_SEARAD_SW USA_SEARAD_NW STORM_SPEED STORM_DIR
1948221N19142 1948 49 WP MM CHRIS 1948-08-08 00:00:00 TS 19.0000 142.000 main 1722 1662 O________OOO__ jtwc_wp WP091948 19.0000 142.000 20 -1 19.0000 142.000 TC 20 19.0000 142.000 1 20 19.0000 142.000 20 1001 420 11 340
1948221N19142 1948 49 WP MM CHRIS 1948-08-08 03:00:00 TS 19.5047 141.805 main 1662 1602 P________PPP__ WP091948 19.5000 141.818 22 -1 19.5000 141.818 TC 22 19.5189 141.768 1 21 19.5000 141.818 22 1000 420 11 339
1948221N19142 1948 49 WP MM CHRIS 1948-08-08 06:00:00 TS 20.0075 141.582 main 1602 1539 O________OPO__ jtwc_wp WP091948 20.0000 141.600 25 -1 20.0000 141.600 TC 25 20.0301 141.528 1 22 20.0000 141.600 25 1000 420 11 335
1948221N19142 1948 49 WP MM CHRIS 1948-08-08 09:00:00 TS 20.5066 141.310 main 1539 1476 P________PPP__ WP091948 20.5000 141.322 25 -1 20.5000 141.322 TC 25 20.5263 141.274 1 23 20.5000 141.322 25 999 420 11 331
1948221N19142 1948 49 WP MM CHRIS 1948-08-08 12:00:00 TS 21.0000 141.000 main 1476 1413 O________OOO__ jtwc_wp WP091948 21.0000 141.000 25 -1 21.0000 141.000 TC 25 21.0000 141.000 1 25 21.0000 141.000 25 999 420 12 329
1948221N19142 1948 49 WP MM CHRIS 1948-08-08 15:00:00 TS 21.5140 140.658 main 1413 1357 P________PPP__ WP091948 21.5375 140.643 27 -1 21.5375 140.643 TC 27 21.4435 140.702 1 26 21.5375 140.643 27 999 450 12 327
1948221N19142 1948 49 WP MM CHRIS 1948-08-08 18:00:00 TS 21.9619 140.323 main 1347 1308 O________OPO__ jtwc_wp WP091948 22.0000 140.300 30 -1 22.0000 140.300 TC 30 21.8476 140.393 1 27 22.0000 140.300 30 999 480 9 323
1948221N19142 1948 49 WP MM CHRIS 1948-08-08 21:00:00 TS 22.2719 140.048 main 1305 1278 P________PPP__ WP091948 22.2949 140.035 30 -1 22.2949 140.035 TC 30 22.2029 140.087 1 28 22.2949 140.035 30 998 480 7 318
1948221N19142 1948 49 WP MM CHRIS 1948-08-09 00:00:00 TS 22.5000 139.800 main 1278 1251 O________OOO__ jtwc_wp WP091948 22.5000 139.800 30 -1 22.5000 139.800 TC 30 22.5000 139.800 1 30 22.5000 139.800 30 998 480 6 314
1948221N19142 1948 49 WP MM CHRIS 1948-08-09 03:00:00 TS 22.7182 139.555 main 1251 1221 P________PPP__ WP091948 22.7150 139.542 32 -1 22.7150 139.542 TC 32 22.7276 139.593 1 32 22.7150 139.542 32 997 450 6 312
1948221N19142 1948 49 WP MM CHRIS 1948-08-09 06:00:00 TS 22.9003 139.325 main 1221 1207 O________OPO__ jtwc_wp WP091948 22.9000 139.300 35 0 22.9000 139.300 TC 35 22.9013 139.401 1 35 22.9000 139.300 35 996 420 5 311
1948221N19142 1948 49 WP MM CHRIS 1948-08-09 09:00:00 TS 23.0440 139.149 main 1204 1176 P________PPP__ WP091948 23.0422 139.137 37 0 23.0422 139.137 TC 37 23.0493 139.183 1 37 23.0422 139.137 37 995 420 5 307
1948221N19142 1948 49 WP MM CHRIS 1948-08-09 12:00:00 TS 23.2000 138.900 main 1176 1134 O________OOO__ jtwc_wp WP091948 23.2000 138.900 40 0 23.2000 138.900 TC 40 23.2000 138.900 2 40 23.2000 138.900 40 994 420 8 302
1948221N19142 1948 49 WP MM CHRIS 1948-08-09 15:00:00 TS 23.4460 138.459 main 1134 1077 P________PPP__ WP091948 23.4503 138.438 40 0 23.4503 138.438 TC 40 23.4333 138.522 2 42 23.4503 138.438 40 992 420 10 299
1948221N19142 1948 49 WP MM CHRIS 1948-08-09 18:00:00 TS 23.6918 137.943 main 1071 1029 O________OPO__ jtwc_wp WP091948 23.7000 137.900 40 0 23.7000 137.900 TC 40 23.6671 138.072 2 45 23.7000 137.900 40 991 420 10 296
1948221N19142 1948 49 WP MM CHRIS 1948-08-09 21:00:00 TS 23.8821 137.489 main 1029 992 P________PPP__ WP091948 23.8871 137.465 45 0 23.8871 137.465 TC 45 23.8673 137.560 2 47 23.8871 137.465 45 990 420 9 290
1948221N19142 1948 49 WP MM CHRIS 1948-08-10 00:00:00 TS 24.0000 137.000 main 992 966 O________OOO__ jtwc_wp WP091948 24.0000 137.000 50 0 24.0000 137.000 TC 50 24.0000 137.000 2 50 24.0000 137.000 50 989 420 10 279
1948221N19142 1948 49 WP MM CHRIS 1948-08-10 03:00:00 TS 24.0358 136.416 main 961 928 P________PPP__ WP091948 24.0374 136.430 47 0 24.0374 136.430 TC 47 24.0311 136.372 2 47 24.0374 136.430 47 990 390 11 270
1948221N19142 1948 49 WP MM CHRIS 1948-08-10 06:00:00 TS 23.9979 135.778 main 928 903 O________OPO__ jtwc_wp WP091948 24.0000 135.800 45 0 24.0000 135.800 TC 45 23.9917 135.711 2 45 24.0000 135.800 45 991 360 12 264
1948221N19142 1948 49 WP MM CHRIS 1948-08-10 09:00:00 TS 23.9131 135.090 main 903 885 P________PPP__ WP091948 23.9154 135.097 42 0 23.9154 135.097 TC 42 23.9062 135.069 2 42 23.9154 135.097 42 992 330 12 260
1948221N19142 1948 49 WP MM CHRIS 1948-08-10 12:00:00 TS 23.8000 134.500 main 886 878 O________OOO__ jtwc_wp WP091948 23.8000 134.500 40 0 23.8000 134.500 TC 40 23.8000 134.500 2 40 23.8000 134.500 40 993 300 9 256
1948221N19142 1948 49 WP MM CHRIS 1948-08-10 15:00:00 TS 23.7008 134.180 main 885 881 P________PPP__ WP091948 23.6993 134.220 40 0 23.6993 134.220 TC 40 23.7050 134.059 2 40 23.6993 134.220 40 992 270 6 249
1948221N19142 1948 49 WP MM CHRIS 1948-08-10 18:00:00 TS 23.5996 133.924 main 884 881 O________OPO__ jtwc_wp WP091948 23.6000 134.000 40 0 23.6000 134.000 TC 40 23.5985 133.695 2 40 23.6000 134.000 40 992 240 6 251
1948221N19142 1948 49 WP MM CHRIS 1948-08-10 21:00:00 TS 23.4928 133.514 main 881 875 P________PPP__ WP091948 23.4928 133.557 40 0 23.4928 133.557 TC 40 23.4929 133.384 2 40 23.4928 133.557 40 991 210 8 255
1948221N19142 1948 49 WP MM CHRIS 1948-08-11 00:00:00 TS 23.4000 133.100 main 881 873 O________OOO__ jtwc_wp WP091948 23.4000 133.100 40 0 23.4000 133.100 TC 40 23.4000 133.100 2 40 23.4000 133.100 40 990 180 7 257
1948221N19142 1948 49 WP MM CHRIS 1948-08-11 03:00:00 TS 23.3386 132.774 main 884 878 P________PPP__ WP091948 23.3423 132.770 45 0 23.3423 132.770 TC 45 23.3273 132.787 2 42 23.3423 132.770 45 989 210 6 259
1948221N19142 1948 49 WP MM CHRIS 1948-08-11 06:00:00 TS 23.2925 132.499 main 878 874 O________OPO__ jtwc_wp WP091948 23.3000 132.500 50 0 23.3000 132.500 TC 50 23.2698 132.498 2 45 23.3000 132.500 50 989 240 5 259
1948221N19142 1948 49 WP MM CHRIS 1948-08-11 09:00:00 TS 23.2387 132.229 main 883 880 P________PPP__ WP091948 23.2425 132.227 50 0 23.2425 132.227 TC 50 23.2274 132.234 2 47 23.2425 132.227 50 988 210 5 259
1948221N19142 1948 49 WP MM CHRIS 1948-08-11 12:00:00 TS 23.2000 132.000 main 880 877 O________OOO__ jtwc_wp WP091948 23.2000 132.000 50 0 23.2000 132.000 TC 50 23.2000 132.000 2 50 23.2000 132.000 50 988 180 4 263
1948221N19142 1948 49 WP MM CHRIS 1948-08-11 15:00:00 TS 23.1927 131.830 main 877 876 P________PPP__ WP091948 23.1924 131.843 47 0 23.1924 131.843 TC 47 23.1935 131.792 2 46 23.1924 131.843 47 988 180 3 270
1948221N19142 1948 49 WP MM CHRIS 1948-08-11 18:00:00 TS 23.1999 131.678 main 876 874 O________OPO__ jtwc_wp WP091948 23.2000 131.700 45 0 23.2000 131.700 TC 45 23.1997 131.613 2 42 23.2000 131.700 45 989 180 3 272
1948221N19142 1948 49 WP MM CHRIS 1948-08-11 21:00:00 TS 23.2016 131.477 main 874 873 P________PPP__ WP091948 23.2001 131.485 40 0 23.2001 131.485 TC 40 23.2061 131.452 2 38 23.2001 131.485 40 989 180 3 270
1948221N19142 1948 49 WP MM CHRIS 1948-08-12 00:00:00 TS 23.2000 131.300 main 873 872 O________OOO__ jtwc_wp WP091948 23.2000 131.300 35 0 23.2000 131.300 TC 35 23.2000 131.300 2 35 23.2000 131.300 35 990 180 2 271
1948221N19142 1948 49 WP MM CHRIS 1948-08-12 03:00:00 TS 23.2063 131.232 main 872 872 P________PPP__ WP091948 23.2149 131.258 35 0 23.2149 131.258 TC 35 23.1805 131.155 2 35 23.2149 131.258 35 991 180 1 264
1948221N19142 1948 49 WP MM CHRIS 1948-08-12 06:00:00 TS 23.1862 131.154 main 872 871 O________OPO__ jtwc_wp WP091948 23.2000 131.200 35 0 23.2000 131.200 TC 35 23.1447 131.015 2 35 23.2000 131.200 35 993 180 3 251
1948221N19142 1948 49 WP MM CHRIS 1948-08-12 09:00:00 TS 23.1192 130.963 main 882 882 P________PPP__ WP091948 23.1300 130.995 35 0 23.1300 130.995 TC 35 23.0867 130.868 2 35 23.1300 130.995 35 994 150 5 246
1948221N19142 1948 49 WP MM CHRIS 1948-08-12 12:00:00 TS 23.0000 130.700 main 893 883 O________OOO__ jtwc_wp WP091948 23.0000 130.700 35 0 23.0000 130.700 TC 35 23.0000 130.700 2 35 23.0000 130.700 35 995 120 6 241
1948221N19142 1948 49 WP MM CHRIS 1948-08-12 15:00:00 TS 22.8228 130.379 main 885 858 P________PPP__ WP091948 22.8002 130.327 35 0 22.8002 130.327 TC 35 22.8905 130.533 2 33 22.8002 130.327 35 996 120 7 237
1948221N19142 1948 49 WP MM CHRIS 1948-08-12 18:00:00 TS 22.6379 130.085 main 861 845 O________OPO__ jtwc_wp WP091948 22.6000 130.000 35 0 22.6000 130.000 TC 35 22.7517 130.341 2 32 22.6000 130.000 35 997 120 5 232
1948221N19142 1948 49 WP MM CHRIS 1948-08-12 21:00:00 TS 22.5104 129.940 main 845 838 P________PPP__ WP091948 22.4848 129.885 32 -1 22.4848 129.885 TC 32 22.5872 130.102 2 31 22.4848 129.885 32 997 120 4 228
1948221N19142 1948 49 WP MM CHRIS 1948-08-13 00:00:00 TS 22.4000 129.800 main 838 822 O________OOO__ jtwc_wp WP091948 22.4000 129.800 30 -1 22.4000 129.800 TC 30 22.4000 129.800 1 30 22.4000 129.800 30 998 120 4 238
1948221N19142 1948 49 WP MM CHRIS 1948-08-13 03:00:00 TS 22.2951 129.566 main 822 787 P________PPP__ WP091948 22.3371 129.633 30 -1 22.3371 129.633 TC 30 22.1692 129.365 1 28 22.3371 129.633 30 998 120 6 244
1948221N19142 1948 49 WP MM CHRIS 1948-08-13 06:00:00 TS 22.1304 129.194 main 791 748 O________OPO__ jtwc_wp WP091948 22.2000 129.300 30 -1 22.2000 129.300 TC 30 21.9216 128.876 1 27 22.2000 129.300 30 999 120 10 242
1948221N19142 1948 49 WP MM CHRIS 1948-08-13 09:00:00 TS 21.7990 128.575 main 748 689 P________PPP__ WP091948 21.8360 128.634 27 -1 21.8360 128.634 TC 27 21.6879 128.399 1 26 21.8360 128.634 27 999 120 13 240
1948221N19142 1948 49 WP MM CHRIS 1948-08-13 12:00:00 TS 21.5000 128.000 main 689 665 O________OOO__ jtwc_wp WP091948 21.5000 128.000 25 -1 21.5000 128.000 TC 25 21.5000 128.000 1 25 21.5000 128.000 25 1000 120 8 245
1948221N19142 1948 49 WP MM CHRIS 1948-08-13 15:00:00 TS 21.4419 127.763 main 665 656 P________PPP__ WP091948 21.4620 127.776 25 -1 21.4620 127.776 TC 25 21.3814 127.726 1 25 21.4620 127.776 25 1000 90 3 263
1948221N19142 1948 49 WP MM CHRIS 1948-08-13 18:00:00 TS 21.4643 127.672 main 662 647 O________OPO__ jtwc_wp WP091948 21.5000 127.700 25 -1 21.5000 127.700 TC 25 21.3215 127.559 1 25 21.5000 127.700 25 1001 60 2 260
1948221N19142 1948 49 WP MM CHRIS 1948-08-13 21:00:00 TS 21.4051 127.544 main 638 624 P________PPP__ WP091948 21.4225 127.558 25 -1 21.4225 127.558 TC 25 21.3009 127.462 1 25 21.4225 127.558 25 1001 60 3 237
1948221N19142 1948 49 WP MM CHRIS 1948-08-14 00:00:00 TS 21.3000 127.400 main 624 600 O________OOO__ jtwc_wp WP091948 21.3000 127.400 25 -1 21.3000 127.400 TC 25 21.3000 127.400 1 25 21.3000 127.400 25 1001 60 4 231
1948221N19142 1948 49 WP MM CHRIS 1948-08-14 03:00:00 TS 21.1551 127.210 main 600 571 P________P_P__ WP091948 21.1551 127.210 25 -1 21.1551 127.210 TC 25 1 21.1551 127.210 25 1001 60 5 231
1948221N19142 1948 49 WP MM CHRIS 1948-08-14 06:00:00 TS 21.0000 127.000 main 571 O________O_O__ jtwc_wp WP091948 21.0000 127.000 25 -1 21.0000 127.000 TC 25 1 21.0000 127.000 25 1002 60 5 232

Digital Typhoon Data and Search

About IBTrACS Database

This database is a web-friendly format of International Best Track Archive for Climate Stewardship (IBTrACS), a global best track data archive curated by NOAA dating back to 1842.

Updated: 2021-12-03